sensor_id;sensor_type;location;lat;lon;timestamp;P1;durP1;ratioP1;P2;durP2;ratioP2
43048;SDS011;28673;44.412;11.918;2023-04-21T00:02:08;32.17;;;20.25;;
43048;SDS011;28673;44.412;11.918;2023-04-21T00:04:35;41.83;;;20.98;;
43048;SDS011;28673;44.412;11.918;2023-04-21T00:07:03;43.53;;;21.52;;
43048;SDS011;28673;44.412;11.918;2023-04-21T00:09:34;36.53;;;20.27;;
43048;SDS011;28673;44.412;11.918;2023-04-21T00:12:00;42.25;;;20.77;;
43048;SDS011;28673;44.412;11.918;2023-04-21T00:14:25;34.60;;;19.17;;
43048;SDS011;28673;44.412;11.918;2023-04-21T00:16:51;35.97;;;19.02;;
43048;SDS011;28673;44.412;11.918;2023-04-21T00:19:18;27.05;;;17.17;;
43048;SDS011;28673;44.412;11.918;2023-04-21T00:21:44;32.03;;;18.25;;
43048;SDS011;28673;44.412;11.918;2023-04-21T00:24:10;33.83;;;19.33;;
43048;SDS011;28673;44.412;11.918;2023-04-21T00:26:36;37.40;;;19.45;;
43048;SDS011;28673;44.412;11.918;2023-04-21T00:29:03;38.60;;;20.08;;
43048;SDS011;28673;44.412;11.918;2023-04-21T00:31:29;35.45;;;19.50;;
43048;SDS011;28673;44.412;11.918;2023-04-21T00:33:56;34.75;;;20.08;;
43048;SDS011;28673;44.412;11.918;2023-04-21T00:36:22;37.60;;;20.42;;
43048;SDS011;28673;44.412;11.918;2023-04-21T00:38:49;27.83;;;18.33;;
43048;SDS011;28673;44.412;11.918;2023-04-21T00:41:15;32.63;;;19.27;;
43048;SDS011;28673;44.412;11.918;2023-04-21T00:46:27;40.13;;;20.60;;
43048;SDS011;28673;44.412;11.918;2023-04-21T00:48:53;32.83;;;19.27;;
43048;SDS011;28673;44.412;11.918;2023-04-21T00:51:19;40.15;;;20.48;;
43048;SDS011;28673;44.412;11.918;2023-04-21T00:53:45;37.45;;;20.30;;
43048;SDS011;28673;44.412;11.918;2023-04-21T00:56:12;37.85;;;19.55;;
43048;SDS011;28673;44.412;11.918;2023-04-21T00:58:39;31.67;;;18.17;;
43048;SDS011;28673;44.412;11.918;2023-04-21T01:01:07;33.67;;;19.10;;
43048;SDS011;28673;44.412;11.918;2023-04-21T01:03:34;32.17;;;18.33;;
43048;SDS011;28673;44.412;11.918;2023-04-21T01:06:01;35.78;;;19.05;;
43048;SDS011;28673;44.412;11.918;2023-04-21T01:08:28;31.58;;;19.42;;
43048;SDS011;28673;44.412;11.918;2023-04-21T01:10:54;36.25;;;20.58;;
43048;SDS011;28673;44.412;11.918;2023-04-21T01:13:20;30.90;;;18.20;;
43048;SDS011;28673;44.412;11.918;2023-04-21T01:15:50;37.43;;;17.97;;
43048;SDS011;28673;44.412;11.918;2023-04-21T01:18:16;33.70;;;18.75;;
43048;SDS011;28673;44.412;11.918;2023-04-21T01:20:46;31.40;;;17.65;;
43048;SDS011;28673;44.412;11.918;2023-04-21T01:23:14;35.85;;;18.27;;
43048;SDS011;28673;44.412;11.918;2023-04-21T01:25:42;39.58;;;20.48;;
43048;SDS011;28673;44.412;11.918;2023-04-21T01:28:08;35.85;;;17.85;;
43048;SDS011;28673;44.412;11.918;2023-04-21T01:30:34;33.65;;;19.70;;
43048;SDS011;28673;44.412;11.918;2023-04-21T01:33:00;32.38;;;19.25;;
43048;SDS011;28673;44.412;11.918;2023-04-21T01:35:26;31.70;;;17.92;;
43048;SDS011;28673;44.412;11.918;2023-04-21T01:37:52;29.48;;;17.00;;
43048;SDS011;28673;44.412;11.918;2023-04-21T01:40:18;31.70;;;15.65;;
43048;SDS011;28673;44.412;11.918;2023-04-21T01:42:44;30.65;;;17.13;;
43048;SDS011;28673;44.412;11.918;2023-04-21T01:45:10;28.60;;;16.55;;
43048;SDS011;28673;44.412;11.918;2023-04-21T01:47:37;34.75;;;18.13;;
43048;SDS011;28673;44.412;11.918;2023-04-21T01:50:04;27.45;;;16.10;;
43048;SDS011;28673;44.412;11.918;2023-04-21T01:52:30;23.88;;;15.25;;
43048;SDS011;28673;44.412;11.918;2023-04-21T01:54:56;27.33;;;14.85;;
43048;SDS011;28673;44.412;11.918;2023-04-21T01:57:22;23.00;;;14.90;;
43048;SDS011;28673;44.412;11.918;2023-04-21T01:59:49;26.40;;;14.52;;
43048;SDS011;28673;44.412;11.918;2023-04-21T02:02:15;26.50;;;15.82;;
43048;SDS011;28673;44.412;11.918;2023-04-21T02:04:41;28.17;;;15.82;;
43048;SDS011;28673;44.412;11.918;2023-04-21T02:07:07;21.77;;;15.10;;
43048;SDS011;28673;44.412;11.918;2023-04-21T02:09:33;28.27;;;15.38;;
43048;SDS011;28673;44.412;11.918;2023-04-21T02:11:59;26.05;;;16.95;;
43048;SDS011;28673;44.412;11.918;2023-04-21T02:14:26;30.80;;;15.77;;
43048;SDS011;28673;44.412;11.918;2023-04-21T02:16:52;31.55;;;16.63;;
43048;SDS011;28673;44.412;11.918;2023-04-21T02:19:18;25.45;;;15.48;;
43048;SDS011;28673;44.412;11.918;2023-04-21T02:21:43;27.35;;;15.43;;
43048;SDS011;28673;44.412;11.918;2023-04-21T02:24:09;31.33;;;17.83;;
43048;SDS011;28673;44.412;11.918;2023-04-21T02:26:35;30.60;;;17.35;;
43048;SDS011;28673;44.412;11.918;2023-04-21T02:29:01;26.15;;;15.75;;
43048;SDS011;28673;44.412;11.918;2023-04-21T02:31:27;29.17;;;16.77;;
43048;SDS011;28673;44.412;11.918;2023-04-21T02:33:53;25.15;;;15.63;;
43048;SDS011;28673;44.412;11.918;2023-04-21T02:36:20;22.08;;;15.75;;
43048;SDS011;28673;44.412;11.918;2023-04-21T02:38:46;26.90;;;16.10;;
43048;SDS011;28673;44.412;11.918;2023-04-21T02:41:12;31.05;;;16.27;;
43048;SDS011;28673;44.412;11.918;2023-04-21T02:43:38;26.70;;;16.73;;
43048;SDS011;28673;44.412;11.918;2023-04-21T02:46:05;28.58;;;15.18;;
43048;SDS011;28673;44.412;11.918;2023-04-21T02:48:32;33.65;;;17.38;;
43048;SDS011;28673;44.412;11.918;2023-04-21T02:50:59;24.25;;;15.25;;
43048;SDS011;28673;44.412;11.918;2023-04-21T02:53:25;28.63;;;16.05;;
43048;SDS011;28673;44.412;11.918;2023-04-21T02:55:52;23.50;;;14.52;;
43048;SDS011;28673;44.412;11.918;2023-04-21T02:58:18;23.15;;;14.65;;
43048;SDS011;28673;44.412;11.918;2023-04-21T03:00:43;28.35;;;15.98;;
43048;SDS011;28673;44.412;11.918;2023-04-21T03:03:09;21.63;;;14.32;;
43048;SDS011;28673;44.412;11.918;2023-04-21T03:05:35;29.80;;;16.40;;
43048;SDS011;28673;44.412;11.918;2023-04-21T03:08:01;30.50;;;16.02;;
43048;SDS011;28673;44.412;11.918;2023-04-21T03:10:27;38.63;;;16.13;;
43048;SDS011;28673;44.412;11.918;2023-04-21T03:12:54;31.80;;;16.70;;
43048;SDS011;28673;44.412;11.918;2023-04-21T03:15:20;33.28;;;17.92;;
43048;SDS011;28673;44.412;11.918;2023-04-21T03:17:46;30.90;;;17.70;;
43048;SDS011;28673;44.412;11.918;2023-04-21T03:20:13;29.85;;;17.05;;
43048;SDS011;28673;44.412;11.918;2023-04-21T03:22:40;35.38;;;16.83;;
43048;SDS011;28673;44.412;11.918;2023-04-21T03:25:06;26.38;;;16.52;;
43048;SDS011;28673;44.412;11.918;2023-04-21T03:27:32;31.02;;;17.98;;
43048;SDS011;28673;44.412;11.918;2023-04-21T03:29:59;38.92;;;18.58;;
43048;SDS011;28673;44.412;11.918;2023-04-21T03:32:24;26.83;;;15.82;;
43048;SDS011;28673;44.412;11.918;2023-04-21T03:34:50;26.63;;;17.02;;
43048;SDS011;28673;44.412;11.918;2023-04-21T03:37:18;33.20;;;18.90;;
43048;SDS011;28673;44.412;11.918;2023-04-21T03:39:44;32.85;;;16.48;;
43048;SDS011;28673;44.412;11.918;2023-04-21T03:42:10;33.72;;;19.52;;
43048;SDS011;28673;44.412;11.918;2023-04-21T03:44:36;32.63;;;18.17;;
43048;SDS011;28673;44.412;11.918;2023-04-21T03:47:01;31.55;;;19.02;;
43048;SDS011;28673;44.412;11.918;2023-04-21T03:49:28;30.38;;;17.63;;
43048;SDS011;28673;44.412;11.918;2023-04-21T03:51:54;34.33;;;20.17;;
43048;SDS011;28673;44.412;11.918;2023-04-21T03:54:20;29.13;;;16.65;;
43048;SDS011;28673;44.412;11.918;2023-04-21T03:56:49;28.75;;;18.98;;
43048;SDS011;28673;44.412;11.918;2023-04-21T03:59:14;28.60;;;17.60;;
43048;SDS011;28673;44.412;11.918;2023-04-21T04:01:40;33.22;;;21.05;;
43048;SDS011;28673;44.412;11.918;2023-04-21T04:04:07;35.67;;;20.95;;
43048;SDS011;28673;44.412;11.918;2023-04-21T04:06:33;41.42;;;22.08;;
43048;SDS011;28673;44.412;11.918;2023-04-21T04:09:00;28.17;;;18.98;;
43048;SDS011;28673;44.412;11.918;2023-04-21T04:11:31;37.20;;;20.60;;
43048;SDS011;28673;44.412;11.918;2023-04-21T04:13:57;31.00;;;19.75;;
43048;SDS011;28673;44.412;11.918;2023-04-21T04:16:23;32.08;;;18.70;;
43048;SDS011;28673;44.412;11.918;2023-04-21T04:18:49;33.55;;;20.02;;
43048;SDS011;28673;44.412;11.918;2023-04-21T04:21:15;32.20;;;17.15;;
43048;SDS011;28673;44.412;11.918;2023-04-21T04:23:41;32.50;;;19.83;;
43048;SDS011;28673;44.412;11.918;2023-04-21T04:26:11;31.38;;;19.63;;
43048;SDS011;28673;44.412;11.918;2023-04-21T04:28:37;27.27;;;18.80;;
43048;SDS011;28673;44.412;11.918;2023-04-21T04:31:03;34.80;;;19.13;;
43048;SDS011;28673;44.412;11.918;2023-04-21T04:33:29;29.00;;;19.95;;
43048;SDS011;28673;44.412;11.918;2023-04-21T04:35:55;35.03;;;20.48;;
43048;SDS011;28673;44.412;11.918;2023-04-21T04:38:22;35.10;;;18.63;;
43048;SDS011;28673;44.412;11.918;2023-04-21T04:40:54;39.95;;;21.65;;
43048;SDS011;28673;44.412;11.918;2023-04-21T04:43:21;41.50;;;20.83;;
43048;SDS011;28673;44.412;11.918;2023-04-21T04:45:48;34.85;;;19.88;;
43048;SDS011;28673;44.412;11.918;2023-04-21T04:48:14;32.28;;;20.05;;
43048;SDS011;28673;44.412;11.918;2023-04-21T04:50:40;34.08;;;18.92;;
43048;SDS011;28673;44.412;11.918;2023-04-21T04:53:06;38.42;;;20.35;;
43048;SDS011;28673;44.412;11.918;2023-04-21T04:55:32;38.30;;;20.67;;
43048;SDS011;28673;44.412;11.918;2023-04-21T04:57:58;42.00;;;21.40;;
43048;SDS011;28673;44.412;11.918;2023-04-21T05:00:23;35.25;;;20.52;;
43048;SDS011;28673;44.412;11.918;2023-04-21T05:02:49;38.72;;;21.98;;
43048;SDS011;28673;44.412;11.918;2023-04-21T05:05:15;33.15;;;22.08;;
43048;SDS011;28673;44.412;11.918;2023-04-21T05:07:41;34.03;;;21.02;;
43048;SDS011;28673;44.412;11.918;2023-04-21T05:10:07;32.97;;;18.77;;
43048;SDS011;28673;44.412;11.918;2023-04-21T05:12:34;32.53;;;21.25;;
43048;SDS011;28673;44.412;11.918;2023-04-21T05:15:00;31.60;;;18.88;;
43048;SDS011;28673;44.412;11.918;2023-04-21T05:17:26;41.50;;;21.45;;
43048;SDS011;28673;44.412;11.918;2023-04-21T05:19:52;40.40;;;19.88;;
43048;SDS011;28673;44.412;11.918;2023-04-21T05:22:18;40.42;;;21.52;;
43048;SDS011;28673;44.412;11.918;2023-04-21T05:24:44;34.55;;;20.35;;
43048;SDS011;28673;44.412;11.918;2023-04-21T05:27:10;36.10;;;19.60;;
43048;SDS011;28673;44.412;11.918;2023-04-21T05:29:35;39.35;;;21.38;;
43048;SDS011;28673;44.412;11.918;2023-04-21T05:32:01;38.30;;;20.70;;
43048;SDS011;28673;44.412;11.918;2023-04-21T05:34:27;36.30;;;21.17;;
43048;SDS011;28673;44.412;11.918;2023-04-21T05:36:53;33.28;;;20.40;;
43048;SDS011;28673;44.412;11.918;2023-04-21T05:39:19;30.15;;;20.55;;
43048;SDS011;28673;44.412;11.918;2023-04-21T05:41:45;38.00;;;20.40;;
43048;SDS011;28673;44.412;11.918;2023-04-21T05:44:11;36.80;;;21.25;;
43048;SDS011;28673;44.412;11.918;2023-04-21T05:46:36;38.25;;;21.80;;
43048;SDS011;28673;44.412;11.918;2023-04-21T05:49:02;36.72;;;22.25;;
43048;SDS011;28673;44.412;11.918;2023-04-21T05:51:28;41.45;;;21.95;;
43048;SDS011;28673;44.412;11.918;2023-04-21T05:53:54;36.17;;;22.40;;
43048;SDS011;28673;44.412;11.918;2023-04-21T05:56:22;38.30;;;22.77;;
43048;SDS011;28673;44.412;11.918;2023-04-21T05:58:48;39.08;;;22.50;;
43048;SDS011;28673;44.412;11.918;2023-04-21T06:01:14;46.38;;;22.70;;
43048;SDS011;28673;44.412;11.918;2023-04-21T06:03:40;39.13;;;22.58;;
43048;SDS011;28673;44.412;11.918;2023-04-21T06:06:06;39.53;;;21.85;;
43048;SDS011;28673;44.412;11.918;2023-04-21T06:08:35;37.42;;;22.55;;
43048;SDS011;28673;44.412;11.918;2023-04-21T06:11:01;35.63;;;22.77;;
43048;SDS011;28673;44.412;11.918;2023-04-21T06:13:27;34.63;;;22.15;;
43048;SDS011;28673;44.412;11.918;2023-04-21T06:15:53;37.80;;;21.45;;
43048;SDS011;28673;44.412;11.918;2023-04-21T06:18:19;39.17;;;23.08;;
43048;SDS011;28673;44.412;11.918;2023-04-21T06:20:52;35.78;;;22.77;;
43048;SDS011;28673;44.412;11.918;2023-04-21T06:23:18;34.17;;;20.63;;
43048;SDS011;28673;44.412;11.918;2023-04-21T06:25:57;36.42;;;21.77;;
43048;SDS011;28673;44.412;11.918;2023-04-21T06:28:24;36.60;;;21.35;;
43048;SDS011;28673;44.412;11.918;2023-04-21T06:30:53;39.13;;;21.40;;
43048;SDS011;28673;44.412;11.918;2023-04-21T06:33:20;43.03;;;21.00;;
43048;SDS011;28673;44.412;11.918;2023-04-21T06:35:46;41.25;;;22.13;;
43048;SDS011;28673;44.412;11.918;2023-04-21T06:38:12;36.55;;;21.42;;
43048;SDS011;28673;44.412;11.918;2023-04-21T06:40:37;28.17;;;19.25;;
43048;SDS011;28673;44.412;11.918;2023-04-21T06:43:03;25.23;;;16.60;;
43048;SDS011;28673;44.412;11.918;2023-04-21T06:45:29;21.15;;;15.60;;
43048;SDS011;28673;44.412;11.918;2023-04-21T06:47:55;31.25;;;16.80;;
43048;SDS011;28673;44.412;11.918;2023-04-21T06:50:21;20.52;;;15.05;;
43048;SDS011;28673;44.412;11.918;2023-04-21T06:52:47;26.30;;;16.65;;
43048;SDS011;28673;44.412;11.918;2023-04-21T06:55:13;27.38;;;15.13;;
43048;SDS011;28673;44.412;11.918;2023-04-21T06:57:38;27.20;;;16.15;;
43048;SDS011;28673;44.412;11.918;2023-04-21T07:00:04;22.85;;;15.02;;
43048;SDS011;28673;44.412;11.918;2023-04-21T07:02:31;25.23;;;16.83;;
43048;SDS011;28673;44.412;11.918;2023-04-21T07:04:59;28.45;;;16.55;;
43048;SDS011;28673;44.412;11.918;2023-04-21T07:07:25;24.80;;;16.05;;
43048;SDS011;28673;44.412;11.918;2023-04-21T07:09:51;21.77;;;15.20;;
43048;SDS011;28673;44.412;11.918;2023-04-21T07:12:20;23.95;;;15.77;;
43048;SDS011;28673;44.412;11.918;2023-04-21T07:14:49;22.52;;;14.23;;
43048;SDS011;28673;44.412;11.918;2023-04-21T07:17:16;21.63;;;15.00;;
43048;SDS011;28673;44.412;11.918;2023-04-21T07:19:42;22.55;;;14.38;;
43048;SDS011;28673;44.412;11.918;2023-04-21T07:22:14;19.17;;;13.57;;
43048;SDS011;28673;44.412;11.918;2023-04-21T07:24:40;20.40;;;13.95;;
43048;SDS011;28673;44.412;11.918;2023-04-21T07:27:06;19.73;;;15.27;;
43048;SDS011;28673;44.412;11.918;2023-04-21T07:29:32;30.27;;;16.02;;
43048;SDS011;28673;44.412;11.918;2023-04-21T07:31:58;22.45;;;15.00;;
43048;SDS011;28673;44.412;11.918;2023-04-21T07:34:24;21.98;;;14.77;;
43048;SDS011;28673;44.412;11.918;2023-04-21T07:36:50;21.08;;;15.73;;
43048;SDS011;28673;44.412;11.918;2023-04-21T07:39:16;19.30;;;13.90;;
43048;SDS011;28673;44.412;11.918;2023-04-21T07:41:42;19.88;;;12.18;;
43048;SDS011;28673;44.412;11.918;2023-04-21T07:44:08;19.90;;;14.18;;
43048;SDS011;28673;44.412;11.918;2023-04-21T07:46:34;21.70;;;13.02;;
43048;SDS011;28673;44.412;11.918;2023-04-21T07:49:00;20.70;;;12.48;;
43048;SDS011;28673;44.412;11.918;2023-04-21T07:51:26;17.45;;;12.63;;
43048;SDS011;28673;44.412;11.918;2023-04-21T07:53:52;15.82;;;12.05;;
43048;SDS011;28673;44.412;11.918;2023-04-21T07:56:19;17.40;;;12.75;;
43048;SDS011;28673;44.412;11.918;2023-04-21T07:58:46;18.85;;;12.95;;
43048;SDS011;28673;44.412;11.918;2023-04-21T08:01:12;20.30;;;12.20;;
43048;SDS011;28673;44.412;11.918;2023-04-21T08:03:38;20.23;;;13.75;;
43048;SDS011;28673;44.412;11.918;2023-04-21T08:06:04;27.40;;;14.00;;
43048;SDS011;28673;44.412;11.918;2023-04-21T08:08:29;17.73;;;12.52;;
43048;SDS011;28673;44.412;11.918;2023-04-21T08:10:55;17.55;;;12.82;;
43048;SDS011;28673;44.412;11.918;2023-04-21T08:13:21;17.67;;;11.75;;
43048;SDS011;28673;44.412;11.918;2023-04-21T08:15:50;18.10;;;11.90;;
43048;SDS011;28673;44.412;11.918;2023-04-21T08:18:17;19.13;;;13.10;;
43048;SDS011;28673;44.412;11.918;2023-04-21T08:20:43;19.90;;;12.32;;
43048;SDS011;28673;44.412;11.918;2023-04-21T08:23:11;19.30;;;12.68;;
43048;SDS011;28673;44.412;11.918;2023-04-21T08:25:36;20.73;;;13.32;;
43048;SDS011;28673;44.412;11.918;2023-04-21T08:28:06;16.52;;;11.40;;
43048;SDS011;28673;44.412;11.918;2023-04-21T08:30:32;15.68;;;10.65;;
43048;SDS011;28673;44.412;11.918;2023-04-21T08:32:58;17.50;;;11.60;;
43048;SDS011;28673;44.412;11.918;2023-04-21T08:35:24;20.02;;;11.68;;
43048;SDS011;28673;44.412;11.918;2023-04-21T08:37:50;16.83;;;11.57;;
43048;SDS011;28673;44.412;11.918;2023-04-21T08:40:16;17.40;;;12.07;;
43048;SDS011;28673;44.412;11.918;2023-04-21T08:42:44;15.90;;;10.48;;
43048;SDS011;28673;44.412;11.918;2023-04-21T08:45:11;15.70;;;11.10;;
43048;SDS011;28673;44.412;11.918;2023-04-21T08:47:37;17.17;;;11.85;;
43048;SDS011;28673;44.412;11.918;2023-04-21T08:50:07;15.15;;;10.27;;
43048;SDS011;28673;44.412;11.918;2023-04-21T08:52:37;15.15;;;10.50;;
43048;SDS011;28673;44.412;11.918;2023-04-21T08:55:03;18.00;;;8.90;;
43048;SDS011;28673;44.412;11.918;2023-04-21T08:57:31;16.60;;;11.02;;
43048;SDS011;28673;44.412;11.918;2023-04-21T08:59:57;15.48;;;10.93;;
43048;SDS011;28673;44.412;11.918;2023-04-21T09:02:23;20.38;;;12.00;;
43048;SDS011;28673;44.412;11.918;2023-04-21T09:04:49;19.15;;;11.77;;
43048;SDS011;28673;44.412;11.918;2023-04-21T09:07:35;19.00;;;10.85;;
43048;SDS011;28673;44.412;11.918;2023-04-21T09:10:03;17.30;;;12.40;;
43048;SDS011;28673;44.412;11.918;2023-04-21T09:12:30;17.10;;;12.15;;
43048;SDS011;28673;44.412;11.918;2023-04-21T09:14:56;20.73;;;13.15;;
43048;SDS011;28673;44.412;11.918;2023-04-21T09:17:29;16.55;;;10.90;;
43048;SDS011;28673;44.412;11.918;2023-04-21T09:20:19;15.60;;;11.45;;
43048;SDS011;28673;44.412;11.918;2023-04-21T09:22:46;18.02;;;11.30;;
43048;SDS011;28673;44.412;11.918;2023-04-21T09:25:16;14.73;;;10.80;;
43048;SDS011;28673;44.412;11.918;2023-04-21T09:27:45;16.07;;;10.93;;
43048;SDS011;28673;44.412;11.918;2023-04-21T09:30:12;18.52;;;13.02;;
43048;SDS011;28673;44.412;11.918;2023-04-21T09:32:42;18.35;;;11.52;;
43048;SDS011;28673;44.412;11.918;2023-04-21T09:35:08;18.40;;;12.07;;
43048;SDS011;28673;44.412;11.918;2023-04-21T09:37:35;21.55;;;11.68;;
43048;SDS011;28673;44.412;11.918;2023-04-21T09:40:02;16.60;;;11.25;;
43048;SDS011;28673;44.412;11.918;2023-04-21T09:42:28;20.63;;;11.40;;
43048;SDS011;28673;44.412;11.918;2023-04-21T09:44:55;20.33;;;11.23;;
43048;SDS011;28673;44.412;11.918;2023-04-21T09:47:24;16.92;;;11.10;;
43048;SDS011;28673;44.412;11.918;2023-04-21T09:49:55;17.52;;;12.23;;
43048;SDS011;28673;44.412;11.918;2023-04-21T09:52:24;20.45;;;12.80;;
43048;SDS011;28673;44.412;11.918;2023-04-21T09:54:56;19.13;;;11.73;;
43048;SDS011;28673;44.412;11.918;2023-04-21T09:57:26;17.85;;;11.15;;
43048;SDS011;28673;44.412;11.918;2023-04-21T09:59:59;16.40;;;11.00;;
43048;SDS011;28673;44.412;11.918;2023-04-21T10:02:30;14.02;;;10.48;;
43048;SDS011;28673;44.412;11.918;2023-04-21T10:04:58;18.48;;;11.18;;
43048;SDS011;28673;44.412;11.918;2023-04-21T10:07:24;15.32;;;10.13;;
43048;SDS011;28673;44.412;11.918;2023-04-21T10:09:51;21.20;;;11.88;;
43048;SDS011;28673;44.412;11.918;2023-04-21T10:12:22;16.25;;;10.60;;
43048;SDS011;28673;44.412;11.918;2023-04-21T10:14:53;16.10;;;10.85;;
43048;SDS011;28673;44.412;11.918;2023-04-21T10:17:24;17.38;;;10.63;;
43048;SDS011;28673;44.412;11.918;2023-04-21T10:19:52;14.50;;;11.05;;
43048;SDS011;28673;44.412;11.918;2023-04-21T10:24:54;13.93;;;9.57;;
43048;SDS011;28673;44.412;11.918;2023-04-21T10:27:33;15.75;;;10.45;;
43048;SDS011;28673;44.412;11.918;2023-04-21T10:30:00;19.92;;;11.25;;
43048;SDS011;28673;44.412;11.918;2023-04-21T10:32:40;16.88;;;10.80;;
43048;SDS011;28673;44.412;11.918;2023-04-21T10:35:14;15.40;;;10.65;;
43048;SDS011;28673;44.412;11.918;2023-04-21T10:37:42;20.08;;;10.77;;
43048;SDS011;28673;44.412;11.918;2023-04-21T10:43:02;14.13;;;9.35;;
43048;SDS011;28673;44.412;11.918;2023-04-21T10:45:29;15.68;;;9.07;;
43048;SDS011;28673;44.412;11.918;2023-04-21T10:47:58;10.23;;;8.07;;
43048;SDS011;28673;44.412;11.918;2023-04-21T10:50:30;12.57;;;8.95;;
43048;SDS011;28673;44.412;11.918;2023-04-21T10:52:57;14.23;;;9.30;;
43048;SDS011;28673;44.412;11.918;2023-04-21T10:55:34;14.05;;;9.35;;
43048;SDS011;28673;44.412;11.918;2023-04-21T10:58:04;13.73;;;8.52;;
43048;SDS011;28673;44.412;11.918;2023-04-21T11:00:31;11.23;;;8.77;;
43048;SDS011;28673;44.412;11.918;2023-04-21T11:03:01;13.23;;;8.60;;
43048;SDS011;28673;44.412;11.918;2023-04-21T11:05:33;14.43;;;9.48;;
43048;SDS011;28673;44.412;11.918;2023-04-21T11:08:08;15.95;;;8.70;;
43048;SDS011;28673;44.412;11.918;2023-04-21T11:10:49;10.48;;;8.48;;
43048;SDS011;28673;44.412;11.918;2023-04-21T11:13:20;12.27;;;8.95;;
43048;SDS011;28673;44.412;11.918;2023-04-21T11:15:56;15.35;;;9.90;;
43048;SDS011;28673;44.412;11.918;2023-04-21T11:21:07;13.85;;;8.57;;
43048;SDS011;28673;44.412;11.918;2023-04-21T11:23:33;14.93;;;9.07;;
43048;SDS011;28673;44.412;11.918;2023-04-21T11:25:59;14.52;;;8.32;;
43048;SDS011;28673;44.412;11.918;2023-04-21T11:28:25;13.00;;;8.70;;
43048;SDS011;28673;44.412;11.918;2023-04-21T11:30:51;9.35;;;8.02;;
43048;SDS011;28673;44.412;11.918;2023-04-21T11:33:17;19.63;;;10.73;;
43048;SDS011;28673;44.412;11.918;2023-04-21T11:35:43;14.25;;;7.60;;
43048;SDS011;28673;44.412;11.918;2023-04-21T11:38:09;8.40;;;7.03;;
43048;SDS011;28673;44.412;11.918;2023-04-21T11:40:43;13.40;;;7.78;;
43048;SDS011;28673;44.412;11.918;2023-04-21T11:43:12;7.82;;;6.75;;
43048;SDS011;28673;44.412;11.918;2023-04-21T11:45:41;9.38;;;7.20;;
43048;SDS011;28673;44.412;11.918;2023-04-21T11:48:16;12.82;;;7.57;;
43048;SDS011;28673;44.412;11.918;2023-04-21T11:50:47;13.05;;;7.45;;
43048;SDS011;28673;44.412;11.918;2023-04-21T11:53:14;11.55;;;7.95;;
43048;SDS011;28673;44.412;11.918;2023-04-21T11:55:41;12.13;;;6.28;;
43048;SDS011;28673;44.412;11.918;2023-04-21T11:58:08;11.05;;;7.70;;
43048;SDS011;28673;44.412;11.918;2023-04-21T12:00:34;9.85;;;6.63;;
43048;SDS011;28673;44.412;11.918;2023-04-21T12:03:00;8.00;;;6.10;;
43048;SDS011;28673;44.412;11.918;2023-04-21T12:05:33;9.48;;;6.03;;
43048;SDS011;28673;44.412;11.918;2023-04-21T12:08:00;8.00;;;6.65;;
43048;SDS011;28673;44.412;11.918;2023-04-21T12:10:33;10.55;;;6.25;;
43048;SDS011;28673;44.412;11.918;2023-04-21T12:12:59;6.38;;;5.60;;
43048;SDS011;28673;44.412;11.918;2023-04-21T12:15:25;8.13;;;5.80;;
43048;SDS011;28673;44.412;11.918;2023-04-21T12:17:54;9.25;;;6.53;;
43048;SDS011;28673;44.412;11.918;2023-04-21T12:20:21;12.50;;;7.57;;
43048;SDS011;28673;44.412;11.918;2023-04-21T12:22:48;11.50;;;7.53;;
43048;SDS011;28673;44.412;11.918;2023-04-21T12:25:14;7.70;;;6.40;;
43048;SDS011;28673;44.412;11.918;2023-04-21T12:27:47;7.97;;;6.07;;
43048;SDS011;28673;44.412;11.918;2023-04-21T12:30:14;9.05;;;7.00;;
43048;SDS011;28673;44.412;11.918;2023-04-21T12:32:40;9.38;;;6.55;;
43048;SDS011;28673;44.412;11.918;2023-04-21T12:35:06;11.52;;;7.97;;
43048;SDS011;28673;44.412;11.918;2023-04-21T12:37:33;7.45;;;6.35;;
43048;SDS011;28673;44.412;11.918;2023-04-21T12:39:59;12.80;;;7.22;;
43048;SDS011;28673;44.412;11.918;2023-04-21T12:42:25;10.48;;;7.65;;
43048;SDS011;28673;44.412;11.918;2023-04-21T12:44:51;8.80;;;6.38;;
43048;SDS011;28673;44.412;11.918;2023-04-21T12:47:17;12.50;;;7.43;;
43048;SDS011;28673;44.412;11.918;2023-04-21T12:49:43;12.63;;;7.13;;
43048;SDS011;28673;44.412;11.918;2023-04-21T12:52:11;10.98;;;7.63;;
43048;SDS011;28673;44.412;11.918;2023-04-21T12:54:37;11.15;;;7.05;;
43048;SDS011;28673;44.412;11.918;2023-04-21T12:57:06;9.75;;;6.95;;
43048;SDS011;28673;44.412;11.918;2023-04-21T12:59:32;11.32;;;7.05;;
43048;SDS011;28673;44.412;11.918;2023-04-21T13:01:57;17.55;;;6.25;;
43048;SDS011;28673;44.412;11.918;2023-04-21T13:04:23;11.40;;;6.40;;
43048;SDS011;28673;44.412;11.918;2023-04-21T13:06:49;7.80;;;6.25;;
43048;SDS011;28673;44.412;11.918;2023-04-21T13:09:16;10.10;;;7.50;;
43048;SDS011;28673;44.412;11.918;2023-04-21T13:11:41;13.00;;;7.65;;
43048;SDS011;28673;44.412;11.918;2023-04-21T13:14:07;12.88;;;8.25;;
43048;SDS011;28673;44.412;11.918;2023-04-21T13:16:33;11.35;;;8.65;;
43048;SDS011;28673;44.412;11.918;2023-04-21T13:18:59;9.13;;;6.68;;
43048;SDS011;28673;44.412;11.918;2023-04-21T13:21:25;14.18;;;8.18;;
43048;SDS011;28673;44.412;11.918;2023-04-21T13:23:52;14.45;;;8.77;;
43048;SDS011;28673;44.412;11.918;2023-04-21T13:26:17;10.48;;;7.80;;
43048;SDS011;28673;44.412;11.918;2023-04-21T13:28:43;17.60;;;9.38;;
43048;SDS011;28673;44.412;11.918;2023-04-21T13:31:09;12.38;;;8.10;;
43048;SDS011;28673;44.412;11.918;2023-04-21T13:33:36;10.73;;;8.20;;
43048;SDS011;28673;44.412;11.918;2023-04-21T13:36:02;13.10;;;8.60;;
43048;SDS011;28673;44.412;11.918;2023-04-21T13:38:28;12.38;;;8.73;;
43048;SDS011;28673;44.412;11.918;2023-04-21T13:40:55;10.07;;;7.53;;
43048;SDS011;28673;44.412;11.918;2023-04-21T13:43:21;12.05;;;8.52;;
43048;SDS011;28673;44.412;11.918;2023-04-21T13:45:49;11.32;;;8.20;;
43048;SDS011;28673;44.412;11.918;2023-04-21T13:48:19;21.10;;;9.30;;
43048;SDS011;28673;44.412;11.918;2023-04-21T13:50:46;8.07;;;6.47;;
43048;SDS011;28673;44.412;11.918;2023-04-21T13:53:12;21.52;;;8.77;;
43048;SDS011;28673;44.412;11.918;2023-04-21T13:55:44;13.75;;;8.18;;
43048;SDS011;28673;44.412;11.918;2023-04-21T13:58:10;14.40;;;7.85;;
43048;SDS011;28673;44.412;11.918;2023-04-21T14:00:38;13.48;;;8.43;;
43048;SDS011;28673;44.412;11.918;2023-04-21T14:03:04;8.85;;;7.18;;
43048;SDS011;28673;44.412;11.918;2023-04-21T14:05:30;10.27;;;7.00;;
43048;SDS011;28673;44.412;11.918;2023-04-21T14:07:57;13.70;;;8.07;;
43048;SDS011;28673;44.412;11.918;2023-04-21T14:10:23;10.25;;;7.88;;
43048;SDS011;28673;44.412;11.918;2023-04-21T14:12:49;10.35;;;7.22;;
43048;SDS011;28673;44.412;11.918;2023-04-21T14:15:15;10.52;;;6.57;;
43048;SDS011;28673;44.412;11.918;2023-04-21T14:17:41;8.77;;;6.78;;
43048;SDS011;28673;44.412;11.918;2023-04-21T14:20:07;8.73;;;6.13;;
43048;SDS011;28673;44.412;11.918;2023-04-21T14:22:34;13.23;;;6.90;;
43048;SDS011;28673;44.412;11.918;2023-04-21T14:25:00;11.10;;;6.65;;